Time;durP1;ratioP1;P1;durP2;ratioP2;P2;SDS_P1;SDS_P2;PMS_P1;PMS_P2;Temp;Humidity;BMP_temperature;BMP_pressure;BME280_temperature;BME280_humidity;BME280_pressure;Samples;Min_cycle;Max_cycle;Signal;HPM_P1;HPM_P2
2020/12/25 00:02:11;;;;;;;2.70;2.50;;;5.00;82.10;;;;;;5056641;28;20033;-62
2020/12/25 00:04:37;;;;;;;3.53;2.50;;;5.00;82.20;;;;;;5056772;28;20520;-62
2020/12/25 00:07:07;;;;;;;2.72;2.42;;;5.10;82.30;;;;;;5056929;28;20021;-62
2020/12/25 00:09:33;;;;;;;3.00;2.70;;;5.20;82.30;;;;;;5057127;28;20021;-62
2020/12/25 00:11:59;;;;;;;3.17;2.45;;;5.30;82.20;;;;;;5057127;28;20033;-62
2020/12/25 00:14:25;;;;;;;2.95;2.45;;;5.30;82.60;;;;;;5056035;28;20029;-62
2020/12/25 00:16:50;;;;;;;2.60;2.42;;;5.40;81.90;;;;;;5056434;28;20036;-62
2020/12/25 00:19:16;;;;;;;2.80;2.60;;;5.40;81.80;;;;;;5056645;28;20028;-62
2020/12/25 00:21:42;;;;;;;2.70;2.45;;;5.40;81.60;;;;;;5055612;28;20031;-62
2020/12/25 00:24:08;;;;;;;3.08;2.60;;;5.40;81.60;;;;;;5056886;28;20021;-62
2020/12/25 00:26:35;;;;;;;2.88;2.60;;;5.50;81.60;;;;;;5056469;28;20100;-62
2020/12/25 00:29:01;;;;;;;3.17;2.53;;;5.50;82.20;;;;;;5056347;28;20052;-62
2020/12/25 00:31:32;;;;;;;7.47;3.65;;;5.50;81.50;;;;;;5054630;28;20055;-62
2020/12/25 00:34:03;;;;;;;12.23;5.57;;;5.60;81.60;;;;;;5055685;28;20116;-62
2020/12/25 00:36:31;;;;;;;7.18;4.07;;;5.60;81.50;;;;;;5056462;28;20642;-62
2020/12/25 00:39:02;;;;;;;9.35;4.43;;;5.70;81.40;;;;;;5059664;28;20399;-62
2020/12/25 00:41:28;;;;;;;5.43;3.70;;;5.70;81.20;;;;;;5060979;28;20025;-62
2020/12/25 00:43:54;;;;;;;6.47;3.70;;;5.70;81.20;;;;;;5044222;28;20111;-62
2020/12/25 00:46:21;;;;;;;9.00;4.15;;;5.70;81.10;;;;;;5062016;28;20141;-62
2020/12/25 00:48:47;;;;;;;17.60;5.90;;;5.70;81.20;;;;;;5056544;28;20025;-62
2020/12/25 00:51:13;;;;;;;15.05;6.57;;;5.70;81.20;;;;;;5056153;28;20421;-62
2020/12/25 00:53:39;;;;;;;14.60;5.82;;;5.70;80.90;;;;;;5056090;28;20029;-64
2020/12/25 00:56:05;;;;;;;6.63;3.80;;;5.70;80.90;;;;;;5054354;28;20025;-64
2020/12/25 00:58:31;;;;;;;5.93;3.50;;;5.70;81.00;;;;;;5055695;28;20036;-64
2020/12/25 01:00:57;;;;;;;5.75;3.55;;;5.60;81.10;;;;;;5046626;28;20062;-64
2020/12/25 01:03:22;;;;;;;4.50;3.60;;;5.70;81.30;;;;;;5054172;28;20021;-64
2020/12/25 01:05:48;;;;;;;6.78;4.10;;;5.70;81.40;;;;;;5055435;28;20023;-64
2020/12/25 01:08:14;;;;;;;6.03;3.78;;;5.70;81.60;;;;;;5053595;28;20040;-62
2020/12/25 01:10:39;;;;;;;9.70;3.55;;;5.80;81.80;;;;;;5054897;28;20033;-64
2020/12/25 01:13:05;;;;;;;12.05;5.05;;;5.80;81.50;;;;;;5058818;28;20542;-64
2020/12/25 01:15:31;;;;;;;17.00;7.22;;;5.90;82.00;;;;;;5054845;28;20021;-64
2020/12/25 01:17:56;;;;;;;20.42;7.03;;;5.90;81.40;;;;;;5055009;28;20033;-64
2020/12/25 01:20:22;;;;;;;19.83;8.35;;;5.90;81.50;;;;;;5054785;28;20020;-64
2020/12/25 01:22:48;;;;;;;21.20;7.63;;;6.00;81.40;;;;;;5054809;28;20108;-64
2020/12/25 01:25:14;;;;;;;18.38;7.60;;;5.90;81.00;;;;;;5054606;28;20029;-64
2020/12/25 01:27:39;;;;;;;16.60;5.60;;;5.90;80.90;;;;;;5055120;28;20020;-64
2020/12/25 01:30:05;;;;;;;14.55;5.75;;;5.90;81.30;;;;;;5058688;28;20055;-64
2020/12/25 01:32:37;;;;;;;17.60;7.13;;;5.90;81.30;;;;;;5055480;28;20033;-64
2020/12/25 01:35:06;;;;;;;21.88;8.60;;;6.00;81.60;;;;;;5052858;28;20033;-64
2020/12/25 01:37:31;;;;;;;20.02;7.95;;;6.00;81.50;;;;;;5054502;28;20037;-62
2020/12/25 01:39:57;;;;;;;20.23;9.43;;;6.10;81.50;;;;;;5054490;28;20028;-64
2020/12/25 01:42:23;;;;;;;27.35;10.88;;;6.10;81.50;;;;;;5054775;28;20021;-64
2020/12/25 01:44:48;;;;;;;32.42;13.07;;;6.20;81.40;;;;;;5056147;28;20154;-64
2020/12/25 01:47:16;;;;;;;37.38;14.77;;;6.10;81.00;;;;;;5053093;28;20075;-64
2020/12/25 01:49:43;;;;;;;35.50;15.25;;;6.10;81.20;;;;;;5054421;28;20033;-64
2020/12/25 01:52:11;;;;;;;23.77;10.63;;;6.10;81.70;;;;;;5054438;28;20024;-64
2020/12/25 01:54:36;;;;;;;18.50;8.55;;;6.20;81.80;;;;;;5045813;28;20033;-64
2020/12/25 01:57:03;;;;;;;12.68;5.95;;;6.20;81.90;;;;;;5053754;28;20039;-62
2020/12/25 01:59:30;;;;;;;9.18;5.40;;;6.30;82.00;;;;;;5063936;28;20037;-64
2020/12/25 02:01:57;;;;;;;9.18;4.53;;;6.30;81.70;;;;;;5053515;28;20028;-64
2020/12/25 02:04:23;;;;;;;12.40;6.10;;;6.40;81.70;;;;;;5053785;28;20028;-62
2020/12/25 02:06:50;;;;;;;19.35;9.73;;;6.40;81.50;;;;;;5053557;28;20025;-62
2020/12/25 02:09:15;;;;;;;22.70;10.60;;;6.40;81.40;;;;;;5054321;28;20108;-64
2020/12/25 02:11:41;;;;;;;33.70;12.57;;;6.40;81.50;;;;;;5053692;28;20061;-64
2020/12/25 02:14:07;;;;;;;28.40;13.57;;;6.40;81.80;;;;;;5054143;28;20032;-64
2020/12/25 02:16:33;;;;;;;24.55;12.95;;;6.50;81.80;;;;;;5056056;28;20059;-64
2020/12/25 02:18:58;;;;;;;21.00;11.10;;;6.50;81.90;;;;;;5054083;28;20021;-64
2020/12/25 02:21:24;;;;;;;13.15;6.78;;;6.50;81.90;;;;;;5052877;28;20032;-64
2020/12/25 02:23:50;;;;;;;15.48;6.75;;;6.60;82.00;;;;;;5054077;28;20078;-64
2020/12/25 02:26:15;;;;;;;15.52;6.72;;;6.60;81.80;;;;;;5054419;28;20385;-64
2020/12/25 02:28:41;;;;;;;16.40;6.80;;;6.70;82.00;;;;;;5053726;28;20052;-64
2020/12/25 02:31:07;;;;;;;15.18;6.13;;;6.70;81.90;;;;;;5050945;28;20500;-64
2020/12/25 02:33:33;;;;;;;15.43;7.00;;;6.70;81.60;;;;;;5053194;28;20032;-64
2020/12/25 02:35:59;;;;;;;15.93;7.78;;;6.70;81.50;;;;;;5057046;28;20028;-64
2020/12/25 02:38:25;;;;;;;13.85;7.60;;;6.80;81.40;;;;;;5057472;28;20036;-64
2020/12/25 02:40:51;;;;;;;20.83;8.57;;;6.80;81.40;;;;;;5053249;28;20048;-64
2020/12/25 02:43:16;;;;;;;25.88;11.00;;;6.80;81.30;;;;;;5053798;28;20416;-62
2020/12/25 02:45:42;;;;;;;19.42;8.45;;;6.80;81.90;;;;;;5053050;28;20104;-62
2020/12/25 02:48:08;;;;;;;24.65;10.25;;;6.80;81.40;;;;;;5053258;28;20096;-62
2020/12/25 02:50:34;;;;;;;18.48;8.85;;;6.80;81.30;;;;;;5053116;28;20029;-62
2020/12/25 02:53:00;;;;;;;20.15;8.32;;;6.90;81.30;;;;;;5064690;28;20028;-62
2020/12/25 02:55:26;;;;;;;19.55;8.82;;;6.80;81.30;;;;;;5040548;28;20412;-62
2020/12/25 02:57:52;;;;;;;19.52;9.07;;;6.90;81.20;;;;;;5053014;28;20027;-64
2020/12/25 03:00:17;;;;;;;31.30;11.23;;;6.90;81.30;;;;;;5053171;28;20044;-62
2020/12/25 03:02:43;;;;;;;32.45;12.93;;;6.90;81.10;;;;;;5052567;28;20029;-62
2020/12/25 03:05:09;;;;;;;28.23;12.48;;;6.90;81.20;;;;;;5053334;28;20025;-62
2020/12/25 03:07:35;;;;;;;48.65;18.42;;;6.90;81.30;;;;;;5052761;28;20029;-62
2020/12/25 03:10:01;;;;;;;67.00;26.70;;;6.90;81.40;;;;;;5052857;28;20036;-64
2020/12/25 03:12:26;;;;;;;63.78;27.05;;;6.90;81.40;;;;;;5048424;28;20461;-64
2020/12/25 03:14:52;;;;;;;84.72;33.35;;;6.90;81.30;;;;;;5053394;28;20029;-62
2020/12/25 03:17:18;;;;;;;75.43;32.50;;;6.90;81.30;;;;;;5053168;28;20501;-62
2020/12/25 03:19:43;;;;;;;73.10;30.85;;;6.90;81.40;;;;;;5052830;28;20017;-64
2020/12/25 03:22:09;;;;;;;67.45;27.98;;;6.90;81.30;;;;;;5052746;28;20457;-64
2020/12/25 03:24:35;;;;;;;82.68;33.88;;;6.90;81.40;;;;;;5051776;28;20029;-64
2020/12/25 03:27:01;;;;;;;78.70;31.95;;;6.90;81.70;;;;;;5051465;28;20107;-64
2020/12/25 03:29:26;;;;;;;63.40;31.25;;;6.90;81.70;;;;;;5052112;28;20041;-64
2020/12/25 03:31:53;;;;;;;59.65;25.95;;;6.90;81.50;;;;;;5052416;28;20045;-64
2020/12/25 03:34:18;;;;;;;45.10;19.13;;;6.90;81.40;;;;;;5051502;28;20372;-64
2020/12/25 03:36:44;;;;;;;34.85;14.70;;;6.90;81.40;;;;;;5052019;28;20025;-64
2020/12/25 03:39:10;;;;;;;19.15;9.90;;;6.90;81.50;;;;;;5053231;28;20036;-64
2020/12/25 03:41:36;;;;;;;13.43;6.90;;;6.90;81.50;;;;;;5053043;28;20105;-64
2020/12/25 03:44:02;;;;;;;10.18;5.30;;;6.90;81.60;;;;;;5052780;28;20100;-64
2020/12/25 03:46:35;;;;;;;7.00;4.05;;;7.00;81.70;;;;;;5051450;28;20090;-64
2020/12/25 03:49:02;;;;;;;8.02;5.13;;;6.90;81.50;;;;;;5052873;28;20018;-64
2020/12/25 03:51:28;;;;;;;7.03;5.72;;;6.90;81.40;;;;;;5051000;28;20025;-64
2020/12/25 03:53:53;;;;;;;7.95;6.07;;;6.90;81.30;;;;;;5050950;28;20072;-64
2020/12/25 03:56:19;;;;;;;7.82;5.60;;;6.90;81.40;;;;;;5048389;28;20419;-64
2020/12/25 03:58:45;;;;;;;5.68;4.45;;;6.90;81.40;;;;;;5034975;28;20025;-64
2020/12/25 04:01:11;;;;;;;6.07;5.22;;;6.90;81.30;;;;;;5034038;28;20029;-64
2020/12/25 04:03:36;;;;;;;6.10;4.85;;;6.90;81.50;;;;;;5051389;28;20672;-64
2020/12/25 04:06:02;;;;;;;5.13;4.30;;;6.90;81.50;;;;;;5052672;28;20468;-64
2020/12/25 04:08:28;;;;;;;4.63;3.63;;;7.00;81.60;;;;;;5052883;28;20056;-64
2020/12/25 04:10:54;;;;;;;5.25;3.97;;;7.00;81.60;;;;;;5056103;28;20021;-64
2020/12/25 04:13:21;;;;;;;5.35;4.55;;;7.00;81.70;;;;;;5055539;28;20112;-62
2020/12/25 04:15:47;;;;;;;5.30;4.25;;;7.00;81.70;;;;;;5056537;28;20033;-65
2020/12/25 04:18:13;;;;;;;6.85;4.35;;;7.00;81.70;;;;;;5055794;28;20028;-62
2020/12/25 04:20:38;;;;;;;5.05;3.72;;;7.00;81.50;;;;;;5056286;28;20087;-62
2020/12/25 04:23:04;;;;;;;3.80;3.20;;;7.10;81.50;;;;;;5055792;28;20023;-64
2020/12/25 04:25:30;;;;;;;3.38;2.95;;;7.10;81.00;;;;;;5055396;28;20041;-64
2020/12/25 04:27:55;;;;;;;4.13;3.03;;;7.00;80.90;;;;;;5056580;28;20043;-64
2020/12/25 04:30:21;;;;;;;3.47;2.90;;;7.00;80.70;;;;;;5055669;28;20091;-64
2020/12/25 04:32:47;;;;;;;4.22;3.28;;;6.90;80.80;;;;;;5056296;28;20029;-64
2020/12/25 04:35:12;;;;;;;3.55;2.63;;;6.90;80.90;;;;;;5055714;28;20029;-64
2020/12/25 04:37:38;;;;;;;4.00;2.85;;;6.90;81.30;;;;;;5055791;28;20029;-64
2020/12/25 04:40:04;;;;;;;3.38;2.92;;;6.90;80.70;;;;;;5055487;28;20052;-64
2020/12/25 04:42:31;;;;;;;4.20;2.90;;;6.90;80.70;;;;;;5043439;28;20041;-64
2020/12/25 04:44:57;;;;;;;5.00;3.20;;;6.90;80.30;;;;;;5055969;28;20048;-64
2020/12/25 04:47:23;;;;;;;5.00;3.53;;;6.90;80.10;;;;;;5056060;28;20025;-64
2020/12/25 04:49:49;;;;;;;6.10;3.90;;;6.80;80.40;;;;;;5053343;28;20104;-64
2020/12/25 04:52:15;;;;;;;5.07;3.42;;;6.70;80.50;;;;;;5054370;28;20107;-64
2020/12/25 04:54:40;;;;;;;5.57;3.17;;;6.70;80.50;;;;;;5055596;28;20029;-64
2020/12/25 04:57:06;;;;;;;3.80;2.92;;;6.70;80.80;;;;;;5055329;28;20041;-64
2020/12/25 04:59:32;;;;;;;4.78;3.10;;;6.70;80.90;;;;;;5055831;28;20033;-64
2020/12/25 05:02:00;;;;;;;3.85;3.03;;;6.70;81.40;;;;;;5051425;28;20373;-64
2020/12/25 05:04:27;;;;;;;3.58;2.92;;;6.70;80.90;;;;;;5055153;28;20047;-64
2020/12/25 05:06:54;;;;;;;5.50;3.47;;;6.80;81.00;;;;;;5055534;28;20457;-64
2020/12/25 05:09:24;;;;;;;4.65;3.75;;;6.80;81.10;;;;;;5037341;28;20048;-64
2020/12/25 05:11:55;;;;;;;4.03;3.17;;;6.80;81.10;;;;;;5055496;28;20029;-64
2020/12/25 05:14:29;;;;;;;5.57;3.90;;;6.80;81.00;;;;;;5054547;28;20104;-64
2020/12/25 05:16:59;;;;;;;4.32;3.40;;;6.80;81.50;;;;;;5054879;28;20025;-64
2020/12/25 05:19:32;;;;;;;4.25;3.65;;;6.80;81.40;;;;;;5050632;28;20466;-64
2020/12/25 05:22:00;;;;;;;3.70;3.33;;;6.80;81.00;;;;;;5054462;28;20028;-64
2020/12/25 05:24:27;;;;;;;4.55;3.50;;;6.80;80.80;;;;;;5054820;28;20059;-64
2020/12/25 05:26:56;;;;;;;4.25;3.42;;;6.80;80.80;;;;;;5053708;28;20105;-65
2020/12/25 05:29:24;;;;;;;3.78;3.30;;;6.70;80.70;;;;;;5055203;28;20056;-63
2020/12/25 05:31:51;;;;;;;4.40;3.25;;;6.70;80.80;;;;;;5053300;28;20033;-63
2020/12/25 05:34:18;;;;;;;4.68;3.40;;;6.70;80.70;;;;;;5053707;28;20470;-63
2020/12/25 05:36:54;;;;;;;4.68;3.10;;;6.60;80.60;;;;;;5054212;28;20065;-63
2020/12/25 05:39:37;;;;;;;3.20;2.90;;;6.50;80.70;;;;;;5051564;28;20032;-63
2020/12/25 05:42:06;;;;;;;3.40;3.10;;;6.50;80.80;;;;;;5054032;28;20029;-63
2020/12/25 05:44:45;;;;;;;3.97;3.20;;;6.50;81.10;;;;;;5054633;28;20100;-63
2020/12/25 05:47:17;;;;;;;4.35;3.50;;;6.40;81.10;;;;;;5052155;28;20040;-63
2020/12/25 05:49:45;;;;;;;3.90;3.30;;;6.40;81.40;;;;;;5053994;28;20029;-63
2020/12/25 05:52:12;;;;;;;4.57;4.03;;;6.50;81.50;;;;;;5052877;28;20449;-63
2020/12/25 05:54:42;;;;;;;9.95;7.60;;;6.50;81.60;;;;;;5059616;28;20435;-63
2020/12/25 05:57:08;;;;;;;13.18;9.48;;;6.50;81.30;;;;;;5054744;28;20029;-63
2020/12/25 05:59:34;;;;;;;14.02;10.48;;;6.50;81.30;;;;;;5053925;28;20029;-63
2020/12/25 06:02:05;;;;;;;12.23;9.10;;;6.40;81.40;;;;;;5051952;28;20504;-63
2020/12/25 06:04:32;;;;;;;18.17;12.27;;;6.40;81.30;;;;;;5053390;28;20029;-63
2020/12/25 06:06:58;;;;;;;18.13;12.32;;;6.40;81.50;;;;;;5058920;28;20024;-63
2020/12/25 06:09:34;;;;;;;23.33;17.02;;;6.40;81.30;;;;;;5047439;28;20101;-63
2020/12/25 06:12:03;;;;;;;25.50;18.58;;;6.40;81.50;;;;;;5053260;28;20035;-63
2020/12/25 06:14:28;;;;;;;22.65;18.55;;;6.40;81.70;;;;;;5053455;28;20036;-63
2020/12/25 06:17:07;;;;;;;26.70;20.35;;;6.40;81.60;;;;;;5053450;28;20021;-63
2020/12/25 06:19:49;;;;;;;22.27;16.48;;;6.40;81.50;;;;;;5056203;28;20377;-63
2020/12/25 06:22:36;;;;;;;21.17;15.95;;;6.40;81.70;;;;;;5052512;28;20017;-63
2020/12/25 06:25:06;;;;;;;23.50;16.95;;;6.40;81.40;;;;;;5052997;28;20028;-63
2020/12/25 06:27:32;;;;;;;21.58;15.75;;;6.40;81.70;;;;;;5053497;28;20464;-63
2020/12/25 06:30:00;;;;;;;21.15;15.68;;;6.40;81.70;;;;;;5052592;28;20095;-63
2020/12/25 06:32:27;;;;;;;17.85;13.32;;;6.40;81.70;;;;;;5022233;28;20519;-63
2020/12/25 06:35:01;;;;;;;20.17;15.38;;;6.40;81.60;;;;;;5052740;28;20417;-63
2020/12/25 06:37:30;;;;;;;19.92;15.70;;;6.40;81.60;;;;;;5039690;28;20025;-63
2020/12/25 06:40:05;;;;;;;22.10;16.98;;;6.40;81.80;;;;;;5052804;28;20473;-63
2020/12/25 06:42:35;;;;;;;26.10;19.92;;;6.40;82.10;;;;;;5039493;28;20448;-63
2020/12/25 06:45:03;;;;;;;27.63;21.50;;;6.40;82.00;;;;;;5051715;28;20053;-63
2020/12/25 06:47:37;;;;;;;24.65;19.10;;;6.40;81.70;;;;;;5052801;28;20381;-63
2020/12/25 06:50:10;;;;;;;22.48;17.80;;;6.40;81.80;;;;;;5051281;28;20358;-63
2020/12/25 06:52:52;;;;;;;25.17;20.35;;;6.30;81.70;;;;;;5052914;28;20381;-63
2020/12/25 06:55:20;;;;;;;23.92;18.95;;;6.30;82.00;;;;;;5052610;28;20108;-63
2020/12/25 06:57:46;;;;;;;23.52;17.08;;;6.30;82.20;;;;;;5039281;28;20033;-63
2020/12/25 07:00:12;;;;;;;23.05;17.50;;;6.30;82.10;;;;;;5039392;28;20098;-63
2020/12/25 07:02:41;;;;;;;23.00;17.40;;;6.40;82.30;;;;;;5039430;28;20027;-63
2020/12/25 07:05:07;;;;;;;23.90;18.63;;;6.40;82.50;;;;;;5041895;28;20029;-63
2020/12/25 07:07:33;;;;;;;19.67;14.77;;;6.40;82.60;;;;;;5039294;28;20320;-63
2020/12/25 07:10:17;;;;;;;16.17;10.32;;;6.50;82.60;;;;;;5032291;28;20061;-63
2020/12/25 07:12:42;;;;;;;9.65;7.50;;;6.60;82.50;;;;;;5034178;28;20026;-63
2020/12/25 07:15:08;;;;;;;9.48;7.72;;;6.60;82.20;;;;;;5038736;28;20040;-63
2020/12/25 07:17:35;;;;;;;10.52;6.85;;;6.70;82.30;;;;;;5029521;28;20055;-63
2020/12/25 07:20:01;;;;;;;6.80;5.10;;;6.70;82.40;;;;;;5043655;28;20537;-64
2020/12/25 07:22:28;;;;;;;6.13;4.70;;;6.80;82.50;;;;;;5045732;28;20040;-63
2020/12/25 07:24:54;;;;;;;6.20;4.90;;;6.80;82.60;;;;;;5041059;28;20124;-63
2020/12/25 07:27:19;;;;;;;7.55;4.60;;;6.80;82.30;;;;;;5039288;28;20120;-63
2020/12/25 07:29:45;;;;;;;7.95;5.18;;;6.90;82.50;;;;;;5042366;28;20045;-63
2020/12/25 07:32:12;;;;;;;7.55;5.45;;;7.00;82.30;;;;;;5042778;28;20021;-63
2020/12/25 07:34:38;;;;;;;7.47;5.30;;;7.00;82.50;;;;;;5047089;28;20033;-63
2020/12/25 07:37:07;;;;;;;8.32;6.00;;;7.00;82.60;;;;;;5046367;28;20036;-63
2020/12/25 07:39:33;;;;;;;7.18;5.28;;;7.10;82.50;;;;;;5045178;28;20075;-63
2020/12/25 07:41:59;;;;;;;8.10;5.70;;;7.10;82.40;;;;;;5050237;28;20087;-64
2020/12/25 07:44:25;;;;;;;9.70;5.57;;;7.10;82.00;;;;;;5048319;28;20025;-64
2020/12/25 07:46:51;;;;;;;9.82;6.00;;;7.20;81.60;;;;;;5049599;28;20045;-63
2020/12/25 07:49:19;;;;;;;7.93;6.28;;;7.20;81.40;;;;;;5043105;28;20061;-63
2020/12/25 07:51:47;;;;;;;8.30;5.78;;;7.20;81.10;;;;;;5050766;28;20040;-63
2020/12/25 07:54:14;;;;;;;8.48;6.60;;;7.10;81.40;;;;;;5052763;28;20057;-63
2020/12/25 07:56:40;;;;;;;8.48;6.30;;;7.20;81.40;;;;;;5046034;28;20029;-64
2020/12/25 07:59:06;;;;;;;10.27;7.00;;;7.20;81.50;;;;;;5050311;28;20579;-64
2020/12/25 08:01:33;;;;;;;11.57;7.30;;;7.20;81.70;;;;;;5047034;28;20083;-64
2020/12/25 08:04:04;;;;;;;11.35;7.43;;;7.20;81.60;;;;;;5050667;28;20575;-63
2020/12/25 08:06:31;;;;;;;10.45;7.72;;;7.30;81.50;;;;;;5048813;28;20073;-63
2020/12/25 08:09:02;;;;;;;10.95;7.97;;;7.30;81.40;;;;;;5047092;28;20036;-63
2020/12/25 08:11:29;;;;;;;12.02;7.80;;;7.30;81.30;;;;;;5046808;28;20116;-63
2020/12/25 08:14:02;;;;;;;14.23;7.30;;;7.30;81.10;;;;;;5045506;28;20028;-63
2020/12/25 08:16:30;;;;;;;8.52;6.20;;;7.30;80.90;;;;;;5037213;28;20033;-63
2020/12/25 08:18:56;;;;;;;8.05;6.47;;;7.30;81.00;;;;;;5055074;28;20033;-63
2020/12/25 08:21:30;;;;;;;9.00;6.32;;;7.30;81.00;;;;;;5047969;28;20032;-63
2020/12/25 08:23:56;;;;;;;9.85;6.22;;;7.30;80.90;;;;;;5038119;28;20026;-63
2020/12/25 08:26:32;;;;;;;8.48;6.10;;;7.30;81.00;;;;;;5042106;28;21087;-63
2020/12/25 08:28:58;;;;;;;8.60;6.05;;;7.30;81.00;;;;;;5044080;28;20045;-63
2020/12/25 08:31:25;;;;;;;7.90;6.05;;;7.40;81.00;;;;;;5041779;28;20029;-63
2020/12/25 08:33:55;;;;;;;9.00;6.72;;;7.40;81.10;;;;;;5046825;28;20026;-63
2020/12/25 08:36:21;;;;;;;8.55;5.90;;;7.40;81.10;;;;;;5041703;28;20021;-64
2020/12/25 08:38:47;;;;;;;10.38;6.68;;;7.50;80.90;;;;;;5044676;28;20392;-64
2020/12/25 08:41:13;;;;;;;9.82;6.20;;;7.40;80.70;;;;;;5050645;28;20021;-64
2020/12/25 08:43:39;;;;;;;9.43;6.45;;;7.50;80.80;;;;;;5038721;28;20123;-64
2020/12/25 08:46:05;;;;;;;9.05;6.57;;;7.50;80.70;;;;;;5045444;28;20369;-64
2020/12/25 08:48:32;;;;;;;10.02;6.97;;;7.50;80.60;;;;;;5043399;28;20522;-64
2020/12/25 08:51:09;;;;;;;12.55;7.00;;;7.50;80.40;;;;;;5042176;28;20090;-64
2020/12/25 08:53:36;;;;;;;11.25;8.23;;;7.50;80.60;;;;;;5044684;28;20032;-64
2020/12/25 08:56:21;;;;;;;13.05;9.00;;;7.50;80.50;;;;;;5043616;28;20116;-64
2020/12/25 08:59:06;;;;;;;12.80;8.15;;;7.50;80.40;;;;;;5048151;28;20607;-64
2020/12/25 09:01:34;;;;;;;12.85;9.02;;;7.60;80.40;;;;;;5041210;28;20028;-64
2020/12/25 09:04:00;;;;;;;16.63;10.57;;;7.50;80.30;;;;;;5041850;28;20063;-64
2020/12/25 09:06:27;;;;;;;15.05;9.77;;;7.50;80.20;;;;;;5044532;28;20021;-64
2020/12/25 09:08:53;;;;;;;13.55;8.82;;;7.50;80.00;;;;;;5033996;28;20065;-64
2020/12/25 09:11:22;;;;;;;10.95;7.10;;;7.40;80.20;;;;;;5039067;28;20058;-64
2020/12/25 09:13:48;;;;;;;10.38;6.70;;;7.50;80.20;;;;;;5037736;28;20115;-64
2020/12/25 09:16:15;;;;;;;11.68;7.43;;;7.50;80.50;;;;;;5045190;28;20037;-64
2020/12/25 09:18:41;;;;;;;13.45;8.05;;;7.50;80.60;;;;;;5045993;28;20037;-64
2020/12/25 09:21:09;;;;;;;15.13;8.20;;;7.60;80.70;;;;;;5044203;28;20075;-64
2020/12/25 09:23:36;;;;;;;15.13;9.13;;;7.60;80.90;;;;;;5042588;28;20056;-64
2020/12/25 09:26:03;;;;;;;12.30;9.05;;;7.60;80.80;;;;;;5044438;28;20048;-64
2020/12/25 09:28:28;;;;;;;13.30;9.48;;;7.70;80.70;;;;;;5044735;28;20039;-64
2020/12/25 09:30:55;;;;;;;15.05;9.07;;;7.70;80.60;;;;;;5041114;28;20037;-64
2020/12/25 09:33:21;;;;;;;14.88;9.25;;;7.70;80.70;;;;;;5047044;28;20029;-65
2020/12/25 09:35:47;;;;;;;16.33;9.10;;;7.70;80.50;;;;;;5044746;28;20028;-64
2020/12/25 09:38:13;;;;;;;15.30;8.48;;;7.80;80.70;;;;;;5042026;28;20040;-64
2020/12/25 09:40:39;;;;;;;13.20;8.25;;;7.80;80.30;;;;;;5041717;28;20465;-64
2020/12/25 09:43:04;;;;;;;17.08;9.45;;;7.80;80.40;;;;;;5045272;28;20028;-64
2020/12/25 09:45:30;;;;;;;16.38;9.13;;;7.80;80.30;;;;;;5043952;28;20431;-64
2020/12/25 09:47:56;;;;;;;15.50;9.32;;;7.80;80.30;;;;;;5037394;28;20554;-64
2020/12/25 09:50:22;;;;;;;13.20;8.85;;;7.80;80.20;;;;;;5039444;28;20033;-64
2020/12/25 09:52:48;;;;;;;16.45;9.88;;;7.90;80.30;;;;;;5042193;28;20048;-64
2020/12/25 09:55:13;;;;;;;14.32;9.45;;;7.90;80.70;;;;;;5048181;28;20416;-64
2020/12/25 09:57:39;;;;;;;14.05;8.80;;;7.90;80.90;;;;;;5035007;28;20076;-64
2020/12/25 10:00:10;;;;;;;13.80;8.48;;;8.00;81.10;;;;;;5043356;28;20035;-64
2020/12/25 10:02:37;;;;;;;14.57;9.52;;;8.00;81.20;;;;;;5039624;28;20117;-64
2020/12/25 10:05:04;;;;;;;14.00;9.18;;;8.00;81.20;;;;;;5040663;28;20033;-64
2020/12/25 10:07:30;;;;;;;13.68;8.77;;;8.10;81.30;;;;;;5036111;28;20057;-64
2020/12/25 10:09:55;;;;;;;14.18;8.45;;;8.10;81.40;;;;;;5044616;28;20063;-64
2020/12/25 10:12:21;;;;;;;13.68;8.85;;;8.20;81.30;;;;;;5040601;28;20030;-64
2020/12/25 10:14:47;;;;;;;11.98;8.35;;;8.20;81.20;;;;;;5045680;28;20700;-64
2020/12/25 10:17:12;;;;;;;15.85;9.07;;;8.30;81.00;;;;;;5045231;28;20094;-64
2020/12/25 10:19:38;;;;;;;14.57;10.07;;;8.40;80.70;;;;;;5044138;28;20029;-64
2020/12/25 10:22:04;;;;;;;15.90;10.43;;;8.40;80.40;;;;;;5043056;28;20190;-64
2020/12/25 10:24:29;;;;;;;20.70;12.35;;;8.40;80.30;;;;;;5044041;28;20393;-64
2020/12/25 10:26:55;;;;;;;16.42;12.55;;;8.40;80.30;;;;;;5038223;28;20052;-64
2020/12/25 10:29:21;;;;;;;17.75;11.07;;;8.40;80.20;;;;;;5033360;28;20064;-66
2020/12/25 10:31:50;;;;;;;20.40;10.48;;;8.40;80.00;;;;;;5043670;28;21613;-66
2020/12/25 10:34:17;;;;;;;13.55;9.40;;;8.40;80.00;;;;;;5040151;28;20067;-65
2020/12/25 10:36:43;;;;;;;15.57;10.35;;;8.40;80.20;;;;;;5034323;28;20669;-63
2020/12/25 10:39:13;;;;;;;16.92;9.07;;;8.30;80.40;;;;;;5034912;28;20031;-63
2020/12/25 10:41:38;;;;;;;16.52;9.90;;;8.30;80.60;;;;;;5043322;28;20017;-63
2020/12/25 10:44:05;;;;;;;17.08;9.57;;;8.40;80.70;;;;;;5042842;28;20031;-64
2020/12/25 10:46:31;;;;;;;13.18;7.95;;;8.30;80.70;;;;;;5045032;28;20048;-65
2020/12/25 10:48:56;;;;;;;15.75;9.75;;;8.40;80.60;;;;;;5044717;28;20029;-65
2020/12/25 10:51:22;;;;;;;15.85;9.90;;;8.40;80.40;;;;;;5043235;28;20044;-63
2020/12/25 10:53:48;;;;;;;16.42;10.25;;;8.40;80.80;;;;;;5041916;28;20091;-63
2020/12/25 10:56:27;;;;;;;18.83;10.85;;;8.40;80.80;;;;;;5035471;28;20626;-63
2020/12/25 10:58:53;;;;;;;18.35;10.60;;;8.40;80.60;;;;;;5039900;28;20043;-65
2020/12/25 11:01:29;;;;;;;20.25;11.48;;;8.40;80.50;;;;;;5031504;28;20033;-63
2020/12/25 11:03:57;;;;;;;17.15;10.90;;;8.50;80.60;;;;;;5036124;28;20071;-63
2020/12/25 11:06:36;;;;;;;16.75;10.85;;;8.50;80.70;;;;;;5040065;28;20052;-63
2020/12/25 11:09:04;;;;;;;18.38;11.50;;;8.60;80.50;;;;;;5035604;28;20033;-63
2020/12/25 11:11:31;;;;;;;16.55;10.35;;;8.60;80.40;;;;;;5037298;28;20037;-63
2020/12/25 11:13:58;;;;;;;18.38;10.98;;;8.60;80.30;;;;;;5039538;28;20156;-64
2020/12/25 11:16:36;;;;;;;18.92;11.10;;;8.60;80.40;;;;;;5042607;28;20035;-64
2020/12/25 11:19:05;;;;;;;17.60;10.93;;;8.60;80.70;;;;;;5033352;28;20040;-63
2020/12/25 11:21:32;;;;;;;21.38;11.82;;;8.60;80.40;;;;;;5048656;28;20445;-63
2020/12/25 11:24:00;;;;;;;21.10;12.35;;;8.70;80.50;;;;;;5048267;28;20029;-63
2020/12/25 11:26:26;;;;;;;19.83;11.32;;;8.70;80.60;;;;;;5038239;28;20032;-64
2020/12/25 11:28:57;;;;;;;20.50;11.80;;;8.70;80.70;;;;;;5041158;28;20389;-67
2020/12/25 11:31:24;;;;;;;22.38;11.23;;;8.70;80.50;;;;;;5038372;28;20029;-66
2020/12/25 11:33:51;;;;;;;16.85;11.02;;;8.70;80.50;;;;;;5022656;28;20090;-63
2020/12/25 11:36:28;;;;;;;20.75;12.48;;;8.80;80.50;;;;;;5042587;28;20031;-65
2020/12/25 11:38:54;;;;;;;21.23;11.50;;;8.80;80.40;;;;;;5047289;28;20436;-66
2020/12/25 11:41:22;;;;;;;22.90;13.10;;;8.80;80.20;;;;;;5025614;28;20067;-64
2020/12/25 11:43:49;;;;;;;16.65;10.55;;;8.80;80.30;;;;;;5044623;28;20632;-64
2020/12/25 11:46:15;;;;;;;19.40;10.63;;;8.80;80.30;;;;;;5041754;28;20029;-64
2020/12/25 11:48:42;;;;;;;17.73;10.73;;;8.80;80.20;;;;;;5041458;28;20369;-64
2020/12/25 11:51:08;;;;;;;18.98;11.00;;;8.80;80.20;;;;;;5034670;28;20481;-66
2020/12/25 11:53:37;;;;;;;18.13;11.13;;;8.90;80.40;;;;;;5033063;28;20032;-63
2020/12/25 11:56:04;;;;;;;17.10;10.95;;;8.80;80.30;;;;;;5044003;28;20147;-63
2020/12/25 11:58:30;;;;;;;20.02;11.70;;;8.90;80.60;;;;;;5037792;28;20025;-66
2020/12/25 12:00:56;;;;;;;19.23;12.32;;;8.90;81.30;;;;;;5038959;28;20029;-64
2020/12/25 12:03:24;;;;;;;17.77;11.90;;;8.90;80.90;;;;;;5043023;28;20440;-64
2020/12/25 12:05:49;;;;;;;19.30;11.10;;;9.00;81.10;;;;;;5044719;28;20047;-64
2020/12/25 12:08:15;;;;;;;22.10;12.77;;;9.10;80.90;;;;;;5040188;28;20022;-64
2020/12/25 12:10:41;;;;;;;20.13;12.82;;;9.10;80.90;;;;;;5042374;28;20075;-64
2020/12/25 12:13:07;;;;;;;20.80;12.85;;;9.20;80.80;;;;;;5041116;28;20028;-64
2020/12/25 12:15:40;;;;;;;22.65;12.02;;;9.20;80.50;;;;;;5039660;28;20021;-64
2020/12/25 12:18:07;;;;;;;20.63;13.10;;;9.20;80.30;;;;;;5040613;28;20473;-64
2020/12/25 12:20:34;;;;;;;19.33;12.70;;;9.30;80.40;;;;;;5044563;28;20029;-64
2020/12/25 12:22:59;;;;;;;26.15;15.90;;;9.30;80.20;;;;;;5040067;28;20033;-64
2020/12/25 12:25:26;;;;;;;26.73;15.32;;;9.30;80.20;;;;;;5043783;28;21084;-64
2020/12/25 12:27:52;;;;;;;39.28;16.00;;;9.30;80.10;;;;;;5038068;28;20072;-64
2020/12/25 12:30:18;;;;;;;24.15;15.43;;;9.30;80.20;;;;;;5035132;28;20397;-64
2020/12/25 12:32:43;;;;;;;25.65;15.90;;;9.30;80.20;;;;;;5044174;28;20504;-66
2020/12/25 12:35:09;;;;;;;22.60;14.35;;;9.30;80.40;;;;;;5049581;28;20041;-63
2020/12/25 12:37:35;;;;;;;25.90;16.15;;;9.30;80.30;;;;;;5049876;28;20525;-63
2020/12/25 12:40:01;;;;;;;25.10;14.98;;;9.30;80.20;;;;;;5042642;28;20029;-64
2020/12/25 12:42:26;;;;;;;25.70;16.25;;;9.30;80.10;;;;;;5043338;28;20021;-64
2020/12/25 12:44:52;;;;;;;21.73;14.23;;;9.30;79.80;;;;;;5040051;28;20029;-64
2020/12/25 12:47:18;;;;;;;26.27;15.50;;;9.30;79.70;;;;;;5047864;28;20025;-64
2020/12/25 12:49:44;;;;;;;22.70;15.40;;;9.30;80.00;;;;;;5041446;28;20021;-64